Time;durP1;ratioP1;P1;durP2;ratioP2;P2;SDS_P1;SDS_P2;PMS_P1;PMS_P2;Temp;Humidity;BMP_temperature;BMP_pressure;BME280_temperature;BME280_humidity;BME280_pressure;Samples;Min_cycle;Max_cycle;Signal;HPM_P1;HPM_P2
2021/05/05 00:02:21;;;;;;;0.33;0.33;;;7.30;99.90;;;;;;5081926;28;20231;-86
2021/05/05 00:04:47;;;;;;;1.87;1.67;;;7.30;99.90;;;;;;5097054;28;20253;-86
2021/05/05 00:07:12;;;;;;;0.30;0.30;;;7.30;99.90;;;;;;5072462;28;20181;-85
2021/05/05 00:09:38;;;;;;;0.67;0.67;;;7.30;99.90;;;;;;5082793;28;20270;-86
2021/05/05 00:12:05;;;;;;;0.93;0.40;;;7.40;99.90;;;;;;5087240;28;20237;-88
2021/05/05 00:14:31;;;;;;;0.27;0.27;;;7.30;99.90;;;;;;5077262;28;20232;-90
2021/05/05 00:16:57;;;;;;;5.17;0.67;;;7.40;99.90;;;;;;5068698;28;20216;-88
2021/05/05 00:19:23;;;;;;;2.57;1.77;;;7.40;99.90;;;;;;5062542;28;20681;-87
2021/05/05 00:21:49;;;;;;;0.27;0.27;;;7.40;99.90;;;;;;5065804;28;20208;-87
2021/05/05 00:24:15;;;;;;;1.23;0.60;;;7.40;99.90;;;;;;5067341;28;20229;-85
2021/05/05 00:26:41;;;;;;;0.40;0.40;;;7.40;99.90;;;;;;5056049;28;21081;-86
2021/05/05 00:29:08;;;;;;;0.30;0.30;;;7.40;99.90;;;;;;5051694;28;20256;-87
2021/05/05 00:31:34;;;;;;;0.67;0.40;;;7.40;99.90;;;;;;5076622;28;20205;-86
2021/05/05 00:34:00;;;;;;;0.93;0.93;;;7.40;99.90;;;;;;5088912;28;20221;-86
2021/05/05 00:36:28;;;;;;;0.80;0.80;;;7.40;99.90;;;;;;5064530;28;20214;-86
2021/05/05 00:38:54;;;;;;;4.97;0.70;;;7.30;99.90;;;;;;5067385;28;20206;-86
2021/05/05 00:41:21;;;;;;;0.33;0.33;;;7.30;99.90;;;;;;5046397;28;20221;-86
2021/05/05 00:43:47;;;;;;;0.37;0.30;;;7.00;99.90;;;;;;5038614;28;20194;-85
2021/05/05 00:46:12;;;;;;;0.17;0.17;;;6.90;99.90;;;;;;5048829;28;20220;-86
2021/05/05 00:48:38;;;;;;;0.30;0.30;;;6.90;99.90;;;;;;5039677;28;20230;-90
2021/05/05 00:51:05;;;;;;;1.27;1.03;;;6.90;99.90;;;;;;5062912;28;20643;-86
2021/05/05 00:53:31;;;;;;;4.00;0.90;;;6.90;99.90;;;;;;5047759;28;20220;-86
2021/05/05 00:55:58;;;;;;;0.63;0.43;;;7.00;99.90;;;;;;5056090;28;20196;-85
2021/05/05 00:58:23;;;;;;;0.80;0.57;;;7.10;99.90;;;;;;5058305;28;23451;-85
2021/05/05 01:00:51;;;;;;;0.53;0.53;;;7.20;99.90;;;;;;5042067;28;20227;-86
2021/05/05 01:03:18;;;;;;;1.00;1.00;;;7.20;99.90;;;;;;5052005;28;20569;-87
2021/05/05 01:05:44;;;;;;;0.63;0.47;;;7.20;99.90;;;;;;5063164;28;20229;-87
2021/05/05 01:08:09;;;;;;;3.60;1.30;;;7.20;99.90;;;;;;5063255;28;20581;-87
2021/05/05 01:10:35;;;;;;;2.37;0.73;;;7.20;99.90;;;;;;5040702;28;20194;-89
2021/05/05 01:13:01;;;;;;;0.53;0.53;;;7.20;99.90;;;;;;5055104;28;20256;-85
2021/05/05 01:15:28;;;;;;;0.20;0.20;;;7.20;99.90;;;;;;5051920;28;20295;-88
2021/05/05 01:17:54;;;;;;;0.43;0.40;;;7.20;99.90;;;;;;5089980;28;20232;-86
2021/05/05 01:20:19;;;;;;;4.73;0.37;;;7.20;99.90;;;;;;5072364;28;20244;-89
2021/05/05 01:22:45;;;;;;;1.20;0.90;;;7.20;99.90;;;;;;5037042;28;20246;-86
2021/05/05 01:25:13;;;;;;;1.50;1.27;;;7.10;99.90;;;;;;5056798;28;20189;-85
2021/05/05 01:27:42;;;;;;;2.37;2.27;;;7.00;99.90;;;;;;5051423;28;20222;-86
2021/05/05 01:30:10;;;;;;;8.50;1.40;;;7.00;99.90;;;;;;5068661;28;20217;-87
2021/05/05 01:32:38;;;;;;;1.17;0.43;;;7.00;99.90;;;;;;5075924;28;20235;-87
2021/05/05 01:35:05;;;;;;;2.20;0.60;;;7.00;99.90;;;;;;5064952;28;20228;-86
2021/05/05 01:37:32;;;;;;;0.60;0.50;;;7.00;99.90;;;;;;5072397;28;20188;-88
2021/05/05 01:39:57;;;;;;;0.40;0.40;;;7.10;99.90;;;;;;5072628;28;20201;-87
2021/05/05 01:42:23;;;;;;;0.87;0.70;;;7.20;99.90;;;;;;5076387;28;20293;-88
2021/05/05 01:44:49;;;;;;;0.40;0.40;;;7.10;99.90;;;;;;5083928;28;20209;-85
2021/05/05 01:47:15;;;;;;;0.50;0.50;;;7.20;99.90;;;;;;5073629;28;20809;-87
2021/05/05 01:49:47;;;;;;;4.10;1.27;;;7.20;99.90;;;;;;5058651;28;20222;-86
2021/05/05 01:52:15;;;;;;;0.90;0.90;;;7.20;99.90;;;;;;5076970;28;20712;-87
2021/05/05 01:54:40;;;;;;;0.30;0.30;;;7.20;99.90;;;;;;5074426;28;20201;-88
2021/05/05 01:57:21;;;;;;;0.97;0.87;;;7.20;99.90;;;;;;5075647;28;20205;-88
2021/05/05 01:59:51;;;;;;;9.70;0.83;;;7.20;99.90;;;;;;5081284;28;20285;-86
2021/05/05 02:02:17;;;;;;;0.40;0.40;;;7.20;99.90;;;;;;5064543;28;20297;-85
2021/05/05 02:04:43;;;;;;;0.50;0.50;;;7.10;99.90;;;;;;5056553;28;20269;-86
2021/05/05 02:07:08;;;;;;;5.13;1.40;;;7.00;99.90;;;;;;5064992;28;20185;-88
2021/05/05 02:09:34;;;;;;;1.43;0.70;;;7.00;99.90;;;;;;5051428;28;20278;-87
2021/05/05 02:12:00;;;;;;;0.50;0.33;;;7.00;99.90;;;;;;5055976;28;20228;-86
2021/05/05 02:14:26;;;;;;;0.20;0.20;;;7.00;99.90;;;;;;5064727;28;20221;-87
2021/05/05 02:16:59;;;;;;;0.50;0.50;;;7.10;99.90;;;;;;5072573;28;20247;-86
2021/05/05 02:19:25;;;;;;;1.53;0.70;;;7.10;99.90;;;;;;5063933;28;20186;-86
2021/05/05 02:21:51;;;;;;;0.87;0.87;;;7.10;99.90;;;;;;5053596;28;20361;-86
2021/05/05 02:24:17;;;;;;;3.23;1.40;;;7.10;99.90;;;;;;5055540;28;20226;-87
2021/05/05 02:26:42;;;;;;;2.00;0.90;;;7.10;99.90;;;;;;5035943;28;20301;-85
2021/05/05 02:29:08;;;;;;;2.63;1.63;;;7.10;99.90;;;;;;5047284;28;20274;-89
2021/05/05 02:31:34;;;;;;;2.37;1.17;;;7.10;99.90;;;;;;5082107;28;20209;-86
2021/05/05 02:34:01;;;;;;;0.43;0.43;;;7.10;99.90;;;;;;5053091;28;20306;-86
2021/05/05 02:36:32;;;;;;;0.60;0.60;;;7.10;99.90;;;;;;5050507;28;20787;-87
2021/05/05 02:39:00;;;;;;;0.60;0.50;;;7.10;99.90;;;;;;5057039;28;20213;-87
2021/05/05 02:41:26;;;;;;;0.40;0.40;;;7.10;99.90;;;;;;5063175;28;20239;-86
2021/05/05 02:43:52;;;;;;;0.30;0.30;;;6.80;99.90;;;;;;5062486;28;20185;-86
2021/05/05 02:46:18;;;;;;;0.30;0.30;;;6.60;99.90;;;;;;5046389;28;20200;-86
2021/05/05 02:48:43;;;;;;;1.30;0.53;;;6.50;99.90;;;;;;5053060;28;20580;-86
2021/05/05 02:51:10;;;;;;;0.67;0.60;;;6.50;99.90;;;;;;5060182;28;20249;-86
2021/05/05 02:53:36;;;;;;;2.03;0.73;;;6.50;99.90;;;;;;5041523;28;20225;-89
2021/05/05 02:56:03;;;;;;;0.33;0.33;;;6.50;99.90;;;;;;5065383;28;20216;-86
2021/05/05 02:58:28;;;;;;;0.30;0.30;;;6.50;99.90;;;;;;5072979;28;20197;-86
2021/05/05 03:00:54;;;;;;;1.17;0.60;;;6.40;99.90;;;;;;5062254;28;20206;-88
2021/05/05 03:03:20;;;;;;;0.57;0.57;;;6.60;99.90;;;;;;5081390;28;20378;-88
2021/05/05 03:05:46;;;;;;;0.40;0.40;;;6.60;99.90;;;;;;5034896;28;20228;-87
2021/05/05 03:08:13;;;;;;;1.13;0.80;;;6.60;99.90;;;;;;5043757;28;20961;-84
2021/05/05 03:10:39;;;;;;;5.87;0.57;;;6.60;99.90;;;;;;5044806;28;20185;-87
2021/05/05 03:13:05;;;;;;;1.43;1.33;;;6.70;99.90;;;;;;5045110;28;20267;-86
2021/05/05 03:15:31;;;;;;;4.43;0.70;;;6.80;99.90;;;;;;5053000;28;20213;-84
2021/05/05 03:17:57;;;;;;;1.80;0.60;;;6.80;99.90;;;;;;5051645;28;20318;-86
2021/05/05 03:20:23;;;;;;;2.20;1.07;;;6.90;99.90;;;;;;5042064;28;20267;-85
2021/05/05 03:22:49;;;;;;;0.87;0.47;;;6.90;99.90;;;;;;5071805;28;20553;-86
2021/05/05 03:25:14;;;;;;;2.30;0.37;;;6.90;99.90;;;;;;5055087;28;20680;-89
2021/05/05 03:27:40;;;;;;;2.23;0.27;;;6.90;99.90;;;;;;5043521;28;20225;-86
2021/05/05 03:30:07;;;;;;;2.37;1.10;;;6.90;99.90;;;;;;5053948;28;20217;-86
2021/05/05 03:32:34;;;;;;;0.50;0.50;;;7.00;99.90;;;;;;5036393;28;20257;-86
2021/05/05 03:35:00;;;;;;;1.93;1.03;;;7.10;99.90;;;;;;5056684;28;20231;-86
2021/05/05 03:37:26;;;;;;;11.80;2.80;;;7.10;99.90;;;;;;5082834;28;20205;-85
2021/05/05 03:39:52;;;;;;;1.30;1.20;;;7.10;99.90;;;;;;5052440;28;20220;-86
2021/05/05 03:42:18;;;;;;;0.30;0.30;;;7.20;99.90;;;;;;5053113;28;20209;-86
2021/05/05 03:44:43;;;;;;;1.17;0.87;;;7.10;99.90;;;;;;5043455;28;20223;-87
2021/05/05 03:47:09;;;;;;;0.67;0.50;;;7.10;99.90;;;;;;5053000;28;20578;-85
2021/05/05 03:49:35;;;;;;;1.40;0.77;;;7.20;99.90;;;;;;5055131;28;20766;-86
2021/05/05 03:52:01;;;;;;;1.53;1.43;;;7.20;99.90;;;;;;5074278;28;20228;-86
2021/05/05 03:54:27;;;;;;;0.40;0.40;;;7.20;99.90;;;;;;5056407;28;20224;-86
2021/05/05 03:56:53;;;;;;;1.13;0.93;;;7.20;99.90;;;;;;5058457;28;20224;-85
2021/05/05 03:59:19;;;;;;;1.27;1.17;;;7.20;99.90;;;;;;5060485;28;20232;-86
2021/05/05 04:01:45;;;;;;;5.93;1.87;;;7.20;99.90;;;;;;5077515;28;20405;-85
2021/05/05 04:04:10;;;;;;;0.60;0.60;;;7.20;99.90;;;;;;5065693;28;20217;-87
2021/05/05 04:06:36;;;;;;;1.80;0.60;;;7.10;99.90;;;;;;5051735;28;20294;-84
2021/05/05 04:09:02;;;;;;;3.60;0.90;;;7.00;99.90;;;;;;5072090;28;20237;-88
2021/05/05 04:11:28;;;;;;;0.30;0.30;;;7.00;99.90;;;;;;5061684;28;20644;-85
2021/05/05 04:13:54;;;;;;;0.20;0.20;;;6.90;99.90;;;;;;5065882;28;20209;-85
2021/05/05 04:16:20;;;;;;;0.90;0.90;;;6.90;99.90;;;;;;5049762;28;20665;-85
2021/05/05 04:18:45;;;;;;;0.60;0.60;;;6.90;99.90;;;;;;5022846;28;20217;-85
2021/05/05 04:21:11;;;;;;;0.67;0.67;;;7.00;99.90;;;;;;5068079;28;20701;-89
2021/05/05 04:23:37;;;;;;;0.80;0.43;;;7.00;99.90;;;;;;5059351;28;20700;-84
2021/05/05 04:26:04;;;;;;;6.33;1.23;;;7.00;99.90;;;;;;5073637;28;20225;-87
2021/05/05 04:28:30;;;;;;;2.50;0.87;;;7.10;99.90;;;;;;5039926;28;20181;-84
2021/05/05 04:30:56;;;;;;;0.30;0.30;;;7.10;99.90;;;;;;5056416;28;20215;-85
2021/05/05 04:33:22;;;;;;;7.63;1.13;;;7.10;99.90;;;;;;5072619;28;20689;-87
2021/05/05 04:35:48;;;;;;;4.00;1.27;;;7.10;99.90;;;;;;5042045;28;20565;-86
2021/05/05 04:38:14;;;;;;;1.53;0.83;;;7.10;99.90;;;;;;5075479;28;20220;-86
2021/05/05 04:40:40;;;;;;;1.80;0.67;;;7.10;99.90;;;;;;5056374;28;20588;-86
2021/05/05 04:43:06;;;;;;;2.73;0.43;;;7.20;99.90;;;;;;5075171;28;20234;-86
2021/05/05 04:45:32;;;;;;;2.10;1.27;;;7.20;99.90;;;;;;5050607;28;20250;-86
2021/05/05 04:47:59;;;;;;;15.17;0.60;;;7.20;99.90;;;;;;5066439;28;20213;-86
2021/05/05 04:50:26;;;;;;;3.10;0.40;;;7.30;99.90;;;;;;5054162;28;20209;-86
2021/05/05 04:52:53;;;;;;;0.40;0.40;;;7.20;99.90;;;;;;5055935;28;20209;-87
2021/05/05 04:55:19;;;;;;;4.87;1.70;;;7.20;99.90;;;;;;5040397;28;20238;-86
2021/05/05 04:57:45;;;;;;;0.60;0.60;;;7.20;99.90;;;;;;5068063;28;20213;-88
2021/05/05 05:00:11;;;;;;;1.30;1.30;;;7.30;99.90;;;;;;5070619;28;20273;-88
2021/05/05 05:02:37;;;;;;;2.83;1.27;;;7.30;99.90;;;;;;5091034;28;20213;-87
2021/05/05 05:05:04;;;;;;;0.67;0.47;;;7.30;99.90;;;;;;5074993;28;20713;-88
2021/05/05 05:07:31;;;;;;;1.43;0.93;;;7.30;99.90;;;;;;5049542;28;20569;-88
2021/05/05 05:09:58;;;;;;;1.13;0.83;;;7.30;99.90;;;;;;5067882;28;20583;-87
2021/05/05 05:12:24;;;;;;;12.17;1.97;;;7.40;99.90;;;;;;5033430;28;20234;-88
2021/05/05 05:14:50;;;;;;;0.80;0.80;;;7.30;99.90;;;;;;5052805;28;20217;-89
2021/05/05 05:17:16;;;;;;;2.47;1.10;;;7.40;99.90;;;;;;5080922;28;20217;-88
2021/05/05 05:19:41;;;;;;;0.40;0.40;;;7.40;99.90;;;;;;5052198;28;20192;-87
2021/05/05 05:22:07;;;;;;;0.60;0.60;;;7.40;99.90;;;;;;5053884;28;20190;-88
2021/05/05 05:24:33;;;;;;;0.53;0.53;;;7.40;99.90;;;;;;5071348;28;20807;-88
2021/05/05 05:26:59;;;;;;;0.60;0.43;;;7.50;99.90;;;;;;5046835;28;20299;-88
2021/05/05 05:29:24;;;;;;;7.20;0.80;;;7.50;99.90;;;;;;5052326;28;20563;-87
2021/05/05 05:31:50;;;;;;;4.73;1.03;;;7.50;99.90;;;;;;5057969;28;20206;-88
2021/05/05 05:34:16;;;;;;;3.80;0.90;;;7.50;99.90;;;;;;5051640;28;20186;-88
2021/05/05 05:36:42;;;;;;;1.43;1.33;;;7.50;99.90;;;;;;5063782;28;20272;-87
2021/05/05 05:39:08;;;;;;;3.17;1.23;;;7.50;99.90;;;;;;5071086;28;20209;-86
2021/05/05 05:41:35;;;;;;;1.70;0.87;;;7.50;99.90;;;;;;5080097;28;20223;-87
2021/05/05 05:44:02;;;;;;;0.30;0.30;;;7.50;99.90;;;;;;5058047;28;20715;-87
2021/05/05 05:46:28;;;;;;;0.70;0.70;;;7.60;99.90;;;;;;5082063;28;20200;-87
2021/05/05 05:48:53;;;;;;;0.60;0.30;;;7.60;99.90;;;;;;5047907;28;20209;-86
2021/05/05 05:51:19;;;;;;;1.03;1.03;;;7.50;99.90;;;;;;5060041;28;20217;-87
2021/05/05 05:53:45;;;;;;;2.50;1.00;;;7.50;99.90;;;;;;5075249;28;20296;-88
2021/05/05 05:56:11;;;;;;;1.00;1.00;;;7.20;99.90;;;;;;5040282;28;20279;-87
2021/05/05 05:58:36;;;;;;;0.30;0.30;;;7.20;99.90;;;;;;5057517;28;20650;-88
2021/05/05 06:01:03;;;;;;;1.13;0.80;;;7.40;99.90;;;;;;5062832;28;20210;-87
2021/05/05 06:03:29;;;;;;;2.23;1.07;;;7.80;99.90;;;;;;5078004;28;20223;-87
2021/05/05 06:05:55;;;;;;;0.50;0.50;;;7.90;99.90;;;;;;5072758;28;20209;-87
2021/05/05 06:08:21;;;;;;;0.80;0.80;;;8.00;99.90;;;;;;5052341;28;20205;-85
2021/05/05 06:10:48;;;;;;;0.43;0.43;;;8.10;99.90;;;;;;5062295;28;20175;-87
2021/05/05 06:13:14;;;;;;;0.77;0.70;;;8.40;99.90;;;;;;5059264;28;20229;-87
2021/05/05 06:15:40;;;;;;;0.70;0.70;;;8.60;99.90;;;;;;5075816;28;20254;-88
2021/05/05 06:18:06;;;;;;;0.60;0.60;;;8.50;99.90;;;;;;5073750;28;20250;-85
2021/05/05 06:20:33;;;;;;;1.53;1.43;;;8.30;99.90;;;;;;5073059;28;20303;-87
2021/05/05 06:22:59;;;;;;;1.67;1.60;;;8.60;99.90;;;;;;5072735;28;20260;-86
2021/05/05 06:25:25;;;;;;;1.37;0.50;;;8.90;99.90;;;;;;5091180;28;20188;-87
2021/05/05 06:27:51;;;;;;;0.20;0.20;;;9.10;99.90;;;;;;5075294;28;20295;-86
2021/05/05 06:30:18;;;;;;;0.80;0.43;;;9.10;99.90;;;;;;5083160;28;20225;-86
2021/05/05 06:32:44;;;;;;;3.33;0.87;;;9.00;99.90;;;;;;5076857;28;20241;-87
2021/05/05 06:35:10;;;;;;;0.57;0.57;;;9.10;99.90;;;;;;5046300;28;20228;-89
2021/05/05 06:37:36;;;;;;;0.30;0.30;;;9.10;99.90;;;;;;5065994;28;20216;-89
2021/05/05 06:40:07;;;;;;;0.67;0.67;;;8.70;99.90;;;;;;5078063;28;21040;-87
2021/05/05 06:42:35;;;;;;;0.83;0.83;;;8.50;99.90;;;;;;5055711;28;20268;-86
2021/05/05 06:45:01;;;;;;;6.27;1.90;;;8.30;99.90;;;;;;5053622;28;20224;-88
2021/05/05 06:47:27;;;;;;;0.77;0.77;;;8.20;99.90;;;;;;5075374;28;20269;-86
2021/05/05 06:49:52;;;;;;;1.80;0.50;;;8.10;99.90;;;;;;5037347;28;20203;-85
2021/05/05 06:52:18;;;;;;;2.87;1.27;;;7.80;99.90;;;;;;5036421;28;20266;-87
2021/05/05 06:54:44;;;;;;;4.77;0.57;;;7.30;99.90;;;;;;5036878;28;20225;-85
2021/05/05 06:57:10;;;;;;;0.40;0.40;;;7.50;99.90;;;;;;5071442;28;20660;-86
2021/05/05 06:59:35;;;;;;;0.83;0.60;;;7.60;99.90;;;;;;5070302;28;20689;-86
2021/05/05 07:02:02;;;;;;;1.33;1.33;;;7.60;99.90;;;;;;5051056;28;20249;-88
2021/05/05 07:04:29;;;;;;;0.40;0.40;;;7.60;99.90;;;;;;5061533;28;20181;-90
2021/05/05 07:06:55;;;;;;;0.27;0.27;;;7.90;99.90;;;;;;5039670;28;20248;-87
2021/05/05 07:09:21;;;;;;;0.20;0.20;;;8.20;99.90;;;;;;5060886;28;20301;-86
2021/05/05 07:11:46;;;;;;;1.23;0.40;;;8.60;99.90;;;;;;5040884;28;20315;-89
2021/05/05 07:14:12;;;;;;;2.30;0.73;;;8.50;99.90;;;;;;5043027;28;20271;-86
2021/05/05 07:16:38;;;;;;;0.73;0.43;;;8.20;99.90;;;;;;5063299;28;20205;-87
2021/05/05 07:19:04;;;;;;;3.20;0.70;;;8.20;99.90;;;;;;5071937;28;20221;-87
2021/05/05 07:21:31;;;;;;;0.67;0.67;;;8.20;99.90;;;;;;5051257;28;20299;-89
2021/05/05 07:23:57;;;;;;;0.80;0.67;;;7.60;99.90;;;;;;5048299;28;20206;-88
2021/05/05 07:26:24;;;;;;;0.40;0.40;;;7.30;99.90;;;;;;5040883;28;20573;-86
2021/05/05 07:28:50;;;;;;;1.50;1.50;;;7.20;99.90;;;;;;5064581;28;20641;-86
2021/05/05 07:31:16;;;;;;;0.20;0.20;;;7.20;99.90;;;;;;5076534;28;20181;-89
2021/05/05 07:33:42;;;;;;;3.07;0.57;;;7.40;99.90;;;;;;5087843;28;20708;-86
2021/05/05 07:36:20;;;;;;;0.20;0.20;;;7.60;99.90;;;;;;5057106;28;20198;-87
2021/05/05 07:46:56;;;;;;;1.27;0.60;;;8.30;99.90;;;;;;5085920;28;20185;-85
2021/05/05 07:49:19;;;;;;;0.67;0.67;;;8.20;99.90;;;;;;5070744;28;20206;-85
2021/05/05 07:51:45;;;;;;;0.47;0.47;;;8.20;99.90;;;;;;5073938;28;20210;-86
2021/05/05 07:54:11;;;;;;;0.63;0.63;;;8.30;99.90;;;;;;5040500;28;20224;-87
2021/05/05 07:56:37;;;;;;;0.30;0.30;;;8.20;99.90;;;;;;5060257;28;20244;-86
2021/05/05 07:59:04;;;;;;;1.53;1.43;;;8.10;99.90;;;;;;5065834;28;20340;-88
2021/05/05 08:01:31;;;;;;;0.83;0.83;;;7.80;99.90;;;;;;5058827;28;20181;-87
2021/05/05 08:03:58;;;;;;;0.23;0.20;;;7.60;99.90;;;;;;5064740;28;20214;-86
2021/05/05 08:06:25;;;;;;;2.13;1.70;;;7.40;99.90;;;;;;5060536;28;20216;-87
2021/05/05 08:08:52;;;;;;;0.20;0.20;;;7.60;99.90;;;;;;5088453;28;20208;-87
2021/05/05 08:11:18;;;;;;;0.90;0.27;;;7.80;99.90;;;;;;5060686;28;20221;-86
2021/05/05 08:13:44;;;;;;;1.13;1.13;;;8.10;99.90;;;;;;5065533;28;20204;-86
2021/05/05 08:16:10;;;;;;;1.03;0.73;;;8.10;99.90;;;;;;5077806;28;20193;-88
2021/05/05 08:18:36;;;;;;;0.20;0.20;;;7.90;99.90;;;;;;5060007;28;20225;-86
2021/05/05 08:21:09;;;;;;;0.40;0.40;;;7.60;99.90;;;;;;5073402;28;20352;-87
2021/05/05 08:23:36;;;;;;;1.33;0.77;;;7.70;99.90;;;;;;5065798;28;20253;-87
2021/05/05 08:26:03;;;;;;;0.63;0.40;;;7.90;99.90;;;;;;5055595;28;20224;-86
2021/05/05 08:28:29;;;;;;;0.20;0.20;;;7.90;99.90;;;;;;5074651;28;20192;-88
2021/05/05 08:30:56;;;;;;;0.30;0.30;;;7.80;99.90;;;;;;5083270;28;20233;-88
2021/05/05 08:33:21;;;;;;;0.87;0.87;;;7.90;99.90;;;;;;5077132;28;20762;-88
2021/05/05 08:35:48;;;;;;;0.60;0.60;;;7.90;99.90;;;;;;5075902;28;20217;-85
2021/05/05 08:38:14;;;;;;;1.20;1.20;;;7.70;99.90;;;;;;5066877;28;20764;-86
2021/05/05 08:40:40;;;;;;;0.73;0.73;;;7.90;99.90;;;;;;5093805;28;20198;-86
2021/05/05 08:43:05;;;;;;;0.87;0.87;;;8.00;99.90;;;;;;5065229;28;20193;-86
2021/05/05 08:45:32;;;;;;;0.70;0.70;;;7.90;99.90;;;;;;5073698;28;20769;-87
2021/05/05 08:48:01;;;;;;;1.27;0.73;;;8.00;99.90;;;;;;5055420;28;20568;-86
2021/05/05 08:50:30;;;;;;;0.97;0.97;;;8.40;99.90;;;;;;5072686;28;20220;-88
2021/05/05 08:52:56;;;;;;;2.60;0.77;;;9.00;99.90;;;;;;5058780;28;20225;-85
2021/05/05 08:55:24;;;;;;;1.30;0.60;;;8.70;99.90;;;;;;5073829;28;20276;-87
2021/05/05 08:57:50;;;;;;;0.30;0.30;;;8.90;99.90;;;;;;5079316;28;20300;-90
2021/05/05 09:00:26;;;;;;;0.87;0.87;;;9.10;99.90;;;;;;5065945;28;20225;-89
2021/05/05 09:02:53;;;;;;;1.20;1.03;;;9.10;99.90;;;;;;5078882;28;20224;-87
2021/05/05 09:05:19;;;;;;;4.43;0.40;;;9.50;99.90;;;;;;5065620;28;20218;-86
2021/05/05 09:07:45;;;;;;;5.53;1.37;;;9.40;99.90;;;;;;5057092;28;20197;-86
2021/05/05 09:10:17;;;;;;;1.07;0.30;;;8.90;99.90;;;;;;5065495;28;20246;-88
2021/05/05 09:12:45;;;;;;;0.83;0.37;;;8.70;99.90;;;;;;5058479;28;20269;-88
2021/05/05 09:15:18;;;;;;;7.83;0.80;;;8.60;99.90;;;;;;5067474;28;20300;-87
2021/05/05 09:17:48;;;;;;;0.60;0.60;;;8.50;99.90;;;;;;5058030;28;20301;-87
2021/05/05 09:20:23;;;;;;;0.20;0.20;;;9.20;99.90;;;;;;5063983;28;20221;-86
2021/05/05 09:22:56;;;;;;;5.90;0.83;;;9.30;99.90;;;;;;5063077;28;20186;-86
2021/05/05 09:25:25;;;;;;;0.90;0.83;;;9.20;99.90;;;;;;5065985;28;20251;-87
2021/05/05 09:28:09;;;;;;;2.63;1.20;;;9.10;99.90;;;;;;5056110;28;20209;-87
2021/05/05 09:30:35;;;;;;;0.40;0.40;;;9.20;99.90;;;;;;5070997;28;20225;-87
2021/05/05 09:33:02;;;;;;;1.23;0.53;;;9.30;99.90;;;;;;5057498;28;20228;-87
2021/05/05 09:35:37;;;;;;;0.30;0.30;;;9.10;99.90;;;;;;5060727;28;20697;-87
2021/05/05 09:38:09;;;;;;;1.07;0.50;;;8.90;99.90;;;;;;5055614;28;20240;-86
2021/05/05 09:40:36;;;;;;;3.63;1.77;;;9.20;99.90;;;;;;5059167;28;20202;-89
2021/05/05 09:43:18;;;;;;;1.40;0.70;;;9.60;99.90;;;;;;5054384;28;20305;-89
2021/05/05 09:45:44;;;;;;;1.83;1.00;;;9.50;99.90;;;;;;5063891;28;20584;-86
2021/05/05 09:48:11;;;;;;;1.17;0.97;;;9.60;99.90;;;;;;5064725;28;20206;-89
2021/05/05 09:50:43;;;;;;;0.57;0.43;;;9.60;99.90;;;;;;5066190;28;20229;-87
2021/05/05 09:53:16;;;;;;;1.00;0.50;;;9.40;99.90;;;;;;5062727;28;20265;-89
2021/05/05 09:56:02;;;;;;;3.73;0.93;;;9.80;99.90;;;;;;5055971;28;20281;-88
2021/05/05 09:58:32;;;;;;;0.67;0.67;;;10.30;99.90;;;;;;5091980;28;20764;-88
2021/05/05 10:01:04;;;;;;;3.37;2.00;;;10.20;99.90;;;;;;5066113;28;20240;-89
2021/05/05 10:03:38;;;;;;;0.40;0.40;;;9.30;99.90;;;;;;5091855;28;20236;-90
2021/05/05 10:06:37;;;;;;;1.27;0.63;;;9.30;99.90;;;;;;5087412;28;20225;-89
2021/05/05 10:09:12;;;;;;;0.53;0.50;;;10.00;99.90;;;;;;5021578;28;20230;-87
2021/05/05 10:11:41;;;;;;;1.47;0.43;;;10.10;99.90;;;;;;5048631;28;20241;-89
2021/05/05 10:14:13;;;;;;;0.37;0.37;;;10.20;99.90;;;;;;5062474;28;20220;-88
2021/05/05 10:16:42;;;;;;;0.67;0.60;;;9.90;99.90;;;;;;5072887;28;20193;-88
2021/05/05 10:19:19;;;;;;;0.40;0.40;;;9.80;99.90;;;;;;5071697;28;20941;-89
2021/05/05 10:22:08;;;;;;;1.03;0.67;;;10.30;99.90;;;;;;5053789;28;20253;-92
2021/05/05 10:24:37;;;;;;;2.97;0.70;;;10.60;99.90;;;;;;5057624;28;20221;-87
2021/05/05 10:27:04;;;;;;;1.90;0.73;;;10.20;99.90;;;;;;5087670;28;20221;-89
2021/05/05 10:29:32;;;;;;;0.77;0.77;;;10.30;99.90;;;;;;5039350;28;20305;-89
2021/05/05 10:32:04;;;;;;;1.73;0.67;;;10.30;99.90;;;;;;5038085;28;20669;-88
2021/05/05 10:34:30;;;;;;;0.67;0.63;;;9.60;99.90;;;;;;5058285;28;20347;-89
2021/05/05 10:37:02;;;;;;;4.70;0.90;;;9.40;99.90;;;;;;5070854;28;20221;-87
2021/05/05 10:39:34;;;;;;;0.80;0.63;;;9.20;99.90;;;;;;5069557;28;20216;-87
2021/05/05 10:41:59;;;;;;;1.17;0.80;;;9.80;99.90;;;;;;5062745;28;20230;-88
2021/05/05 10:44:36;;;;;;;4.10;1.10;;;9.90;99.90;;;;;;5057303;28;20221;-89
2021/05/05 10:47:19;;;;;;;10.07;0.80;;;10.00;99.90;;;;;;5064934;28;20224;-86
2021/05/05 10:50:11;;;;;;;4.20;0.70;;;10.30;99.90;;;;;;5093738;28;20935;-88
2021/05/05 10:52:42;;;;;;;0.77;0.77;;;10.50;99.90;;;;;;5065058;28;20728;-88
2021/05/05 10:55:36;;;;;;;4.60;0.53;;;10.70;99.90;;;;;;5088911;28;20218;-88
2021/05/05 10:58:17;;;;;;;0.60;0.60;;;10.70;99.90;;;;;;5088551;28;20206;-91
2021/05/05 11:00:56;;;;;;;0.53;0.53;;;10.30;99.90;;;;;;5062784;28;20217;-90
2021/05/05 11:03:41;;;;;;;0.40;0.40;;;10.10;99.90;;;;;;5054516;28;20384;-89
2021/05/05 11:06:35;;;;;;;0.90;0.50;;;10.30;99.90;;;;;;5063423;28;20220;-89
2021/05/05 11:09:11;;;;;;;3.40;1.33;;;10.30;99.90;;;;;;5070588;28;20261;-88
2021/05/05 11:11:44;;;;;;;0.87;0.83;;;10.20;99.90;;;;;;5055948;28;20293;-90
2021/05/05 11:14:22;;;;;;;1.10;0.63;;;10.60;99.90;;;;;;5055694;28;20713;-89
2021/05/05 11:17:05;;;;;;;0.73;0.50;;;10.70;99.90;;;;;;5054857;28;20235;-91
2021/05/05 11:19:37;;;;;;;0.63;0.60;;;11.00;99.90;;;;;;5066403;28;20189;-89
2021/05/05 11:22:04;;;;;;;1.93;0.90;;;10.60;99.90;;;;;;5090042;28;20566;-91
2021/05/05 11:24:37;;;;;;;2.60;1.10;;;10.20;99.90;;;;;;5079744;28;20240;-89
2021/05/05 11:27:05;;;;;;;7.30;1.53;;;10.10;99.90;;;;;;5055154;28;20225;-89
2021/05/05 11:29:42;;;;;;;4.53;1.13;;;10.20;99.90;;;;;;5052320;28;20240;-89
2021/05/05 11:32:14;;;;;;;0.47;0.43;;;10.60;99.90;;;;;;5058892;28;20696;-90
2021/05/05 11:34:44;;;;;;;0.50;0.50;;;9.70;99.90;;;;;;5086223;28;20212;-90
2021/05/05 11:37:24;;;;;;;1.70;0.90;;;9.40;99.90;;;;;;5089836;28;20189;-91
2021/05/05 11:40:04;;;;;;;0.47;0.40;;;9.80;99.90;;;;;;5076457;28;20279;-89
2021/05/05 11:42:36;;;;;;;1.17;0.90;;;10.00;99.90;;;;;;5054402;28;20211;-92
2021/05/05 11:45:13;;;;;;;1.70;0.63;;;10.10;99.90;;;;;;5065341;28;20217;-88
2021/05/05 11:47:42;;;;;;;2.10;0.90;;;10.10;99.90;;;;;;5068960;28;20891;-92
2021/05/05 11:50:12;;;;;;;5.23;1.50;;;10.00;99.90;;;;;;5071436;28;20214;-91
2021/05/05 11:52:47;;;;;;;6.23;0.70;;;10.30;99.90;;;;;;5073277;28;20567;-92
2021/05/05 11:55:13;;;;;;;0.50;0.50;;;10.30;99.90;;;;;;5052600;28;20214;-92
2021/05/05 11:57:40;;;;;;;1.57;1.13;;;10.20;99.90;;;;;;5087163;28;20843;-92
2021/05/05 12:00:12;;;;;;;6.60;1.17;;;10.20;99.90;;;;;;5064151;28;20217;-91
2021/05/05 12:02:50;;;;;;;0.80;0.77;;;10.00;99.90;;;;;;5070416;28;20221;-93
2021/05/05 12:05:30;;;;;;;0.50;0.40;;;10.00;99.90;;;;;;5088994;28;20209;-92
2021/05/05 12:08:15;;;;;;;1.10;0.33;;;10.00;99.90;;;;;;5070079;28;20277;-92
2021/05/05 12:10:42;;;;;;;1.30;0.97;;;10.10;99.90;;;;;;5057837;28;20182;-92
2021/05/05 12:13:20;;;;;;;5.33;1.13;;;9.90;99.90;;;;;;5054895;28;20230;-90
2021/05/05 12:15:59;;;;;;;9.53;1.50;;;9.90;99.90;;;;;;5069872;28;21078;-92
2021/05/05 12:18:30;;;;;;;3.73;1.20;;;10.50;99.90;;;;;;5060325;28;20255;-91
2021/05/05 12:21:04;;;;;;;0.50;0.50;;;10.00;99.90;;;;;;5074499;28;20217;-92
2021/05/05 12:23:44;;;;;;;1.10;0.47;;;9.70;99.90;;;;;;5062261;28;20212;-93
2021/05/05 12:26:25;;;;;;;2.27;0.90;;;9.70;99.90;;;;;;5055229;28;20209;-91
2021/05/05 12:28:52;;;;;;;1.23;0.97;;;9.80;99.90;;;;;;5065283;28;20198;-90
2021/05/05 12:31:20;;;;;;;1.60;0.50;;;9.50;99.90;;;;;;5042911;28;20716;-90
2021/05/05 12:33:48;;;;;;;1.10;1.00;;;9.80;99.90;;;;;;5089868;28;20225;-91
2021/05/05 12:36:15;;;;;;;2.60;1.57;;;10.00;99.90;;;;;;5061621;28;20693;-92
2021/05/05 12:38:47;;;;;;;10.53;1.93;;;10.30;99.90;;;;;;5091557;28;20213;-91
2021/05/05 12:41:17;;;;;;;0.40;0.33;;;10.20;99.90;;;;;;5078740;28;20301;-90
2021/05/05 12:43:46;;;;;;;0.40;0.30;;;10.10;99.90;;;;;;5072072;28;20189;-92
2021/05/05 12:46:20;;;;;;;2.00;1.60;;;10.20;99.90;;;;;;5057011;28;20227;-90
2021/05/05 12:48:45;;;;;;;7.53;2.20;;;10.40;99.90;;;;;;5073055;28;20256;-91
2021/05/05 12:51:14;;;;;;;1.60;0.73;;;10.50;99.90;;;;;;5057376;28;21024;-92
2021/05/05 12:53:51;;;;;;;0.47;0.40;;;10.50;99.90;;;;;;5054890;28;20256;-91
2021/05/05 12:56:20;;;;;;;2.60;1.67;;;10.60;99.90;;;;;;5062835;28;20206;-88
2021/05/05 12:58:47;;;;;;;5.57;0.97;;;10.80;99.90;;;;;;5074244;28;20715;-91
2021/05/05 13:01:15;;;;;;;1.87;1.30;;;10.60;99.90;;;;;;5066990;28;20177;-91
2021/05/05 13:03:46;;;;;;;4.07;1.90;;;10.70;99.90;;;;;;5054439;28;20282;-91
2021/05/05 13:06:14;;;;;;;1.27;1.27;;;10.70;99.90;;;;;;5091002;28;20228;-90
2021/05/05 13:08:52;;;;;;;1.50;0.40;;;10.50;99.90;;;;;;5076853;28;21197;-90
2021/05/05 13:11:35;;;;;;;1.73;0.90;;;10.40;99.90;;;;;;5070658;28;20704;-92